2017-02-25 60 24

From Geo Hashing
Jump to: navigation, search

Sat 25 Feb 2017 in 60,24:
60.1804857, 24.9283031

peeron geohashing.info google osm bing/os kml crox


Location[edit]

In the pavement / cycling lane near the Opera house at Mannerheimintie Töölö

Plans[edit]

Surely

Participants[edit]

  • PPP from Perhe-K
  • No visible trace of any other geohashing activity despite my twitter tweet.

Expedition[edit]

By looking of the maps from karttapaikka this seems to fall in the Mannerheimintie and is easily reachable by foot or bicycle.

Weather & Sky[edit]

METAR EFHF 251150Z 27009KT 230V330 CAVOK M03/M08 Q0998=

Sunny / half clouded, -2C

Photos[edit]